sensor_id;sensor_type;location;lat;lon;timestamp;pressure;altitude;pressure_sealevel;temperature;humidity
39267;BME280;24967;51.154;13.812;2023-04-09T00:01:59;100470.13;;;3.23;72.48
39267;BME280;24967;51.154;13.812;2023-04-09T00:04:25;100475.47;;;3.21;72.20
39267;BME280;24967;51.154;13.812;2023-04-09T00:06:52;100480.81;;;3.20;72.36
39267;BME280;24967;51.154;13.812;2023-04-09T00:09:18;100477.44;;;3.18;72.61
39267;BME280;24967;51.154;13.812;2023-04-09T00:11:46;100478.75;;;3.09;72.09
39267;BME280;24967;51.154;13.812;2023-04-09T00:14:12;100479.22;;;3.00;72.08
39267;BME280;24967;51.154;13.812;2023-04-09T00:16:39;100481.16;;;2.96;71.91
39267;BME280;24967;51.154;13.812;2023-04-09T00:19:05;100478.53;;;2.96;71.97
39267;BME280;24967;51.154;13.812;2023-04-09T00:21:31;100468.09;;;2.95;72.67
39267;BME280;24967;51.154;13.812;2023-04-09T00:23:58;100468.00;;;2.96;72.26
39267;BME280;24967;51.154;13.812;2023-04-09T00:26:24;100471.50;;;2.97;72.18
39267;BME280;24967;51.154;13.812;2023-04-09T00:28:52;100468.00;;;2.96;71.94
39267;BME280;24967;51.154;13.812;2023-04-09T00:31:19;100462.84;;;2.95;71.88
39267;BME280;24967;51.154;13.812;2023-04-09T00:33:45;100465.38;;;2.96;72.42
39267;BME280;24967;51.154;13.812;2023-04-09T00:36:12;100467.94;;;2.98;72.46
39267;BME280;24967;51.154;13.812;2023-04-09T00:38:38;100471.13;;;2.87;72.27
39267;BME280;24967;51.154;13.812;2023-04-09T00:41:05;100463.31;;;2.86;71.69
39267;BME280;24967;51.154;13.812;2023-04-09T00:43:31;100459.84;;;2.85;72.55
39267;BME280;24967;51.154;13.812;2023-04-09T00:45:59;100455.97;;;2.92;71.64
39267;BME280;24967;51.154;13.812;2023-04-09T00:48:26;100454.59;;;2.85;72.21
39267;BME280;24967;51.154;13.812;2023-04-09T00:50:53;100461.19;;;2.77;72.23
39267;BME280;24967;51.154;13.812;2023-04-09T00:53:20;100451.78;;;2.72;72.08
39267;BME280;24967;51.154;13.812;2023-04-09T00:55:48;100460.66;;;2.70;72.46
39267;BME280;24967;51.154;13.812;2023-04-09T00:58:16;100468.28;;;2.74;72.29
39267;BME280;24967;51.154;13.812;2023-04-09T01:00:44;100451.16;;;2.67;72.62
39267;BME280;24967;51.154;13.812;2023-04-09T01:03:12;100464.91;;;2.72;73.30
39267;BME280;24967;51.154;13.812;2023-04-09T01:05:45;100468.91;;;2.80;73.55
39267;BME280;24967;51.154;13.812;2023-04-09T01:08:18;100469.91;;;2.77;73.17
39267;BME280;24967;51.154;13.812;2023-04-09T01:10:55;100455.88;;;2.61;74.09
39267;BME280;24967;51.154;13.812;2023-04-09T01:13:29;100472.22;;;2.66;73.96
39267;BME280;24967;51.154;13.812;2023-04-09T01:16:02;100467.75;;;2.68;74.54
39267;BME280;24967;51.154;13.812;2023-04-09T01:18:35;100471.44;;;2.81;74.24
39267;BME280;24967;51.154;13.812;2023-04-09T01:21:28;100443.94;;;2.71;73.93
39267;BME280;24967;51.154;13.812;2023-04-09T01:24:05;100460.75;;;2.84;73.97
39267;BME280;24967;51.154;13.812;2023-04-09T01:26:43;100474.88;;;2.99;73.04
39267;BME280;24967;51.154;13.812;2023-04-09T01:29:19;100474.63;;;2.70;73.20
39267;BME280;24967;51.154;13.812;2023-04-09T01:31:47;100484.50;;;2.65;74.12
39267;BME280;24967;51.154;13.812;2023-04-09T01:34:15;100488.69;;;2.69;73.95
39267;BME280;24967;51.154;13.812;2023-04-09T01:36:46;100494.09;;;2.66;74.58
39267;BME280;24967;51.154;13.812;2023-04-09T01:39:15;100494.09;;;2.66;74.51
39267;BME280;24967;51.154;13.812;2023-04-09T01:41:42;100493.94;;;2.69;74.81
39267;BME280;24967;51.154;13.812;2023-04-09T01:44:10;100490.75;;;2.63;74.23
39267;BME280;24967;51.154;13.812;2023-04-09T01:46:39;100479.88;;;2.70;74.36
39267;BME280;24967;51.154;13.812;2023-04-09T01:49:06;100488.44;;;2.74;74.61
39267;BME280;24967;51.154;13.812;2023-04-09T01:51:34;100488.53;;;2.72;74.16
39267;BME280;24967;51.154;13.812;2023-04-09T01:54:01;100498.25;;;2.70;73.65
39267;BME280;24967;51.154;13.812;2023-04-09T01:56:38;100486.22;;;2.66;74.32
39267;BME280;24967;51.154;13.812;2023-04-09T01:59:05;100482.56;;;2.69;73.62
39267;BME280;24967;51.154;13.812;2023-04-09T02:01:34;100472.78;;;2.72;73.82
39267;BME280;24967;51.154;13.812;2023-04-09T02:04:06;100470.84;;;2.76;73.79
39267;BME280;24967;51.154;13.812;2023-04-09T02:06:38;100474.38;;;2.75;72.99
39267;BME280;24967;51.154;13.812;2023-04-09T02:09:07;100481.41;;;2.74;73.58
39267;BME280;24967;51.154;13.812;2023-04-09T02:11:36;100477.88;;;2.75;73.46
39267;BME280;24967;51.154;13.812;2023-04-09T02:14:03;100479.69;;;2.56;73.14
39267;BME280;24967;51.154;13.812;2023-04-09T02:16:33;100490.22;;;2.56;72.77
39267;BME280;24967;51.154;13.812;2023-04-09T02:18:59;100487.53;;;2.58;73.58
39267;BME280;24967;51.154;13.812;2023-04-09T02:21:27;100483.88;;;2.60;73.18
39267;BME280;24967;51.154;13.812;2023-04-09T02:23:56;100491.75;;;2.60;73.40
39267;BME280;24967;51.154;13.812;2023-04-09T02:26:23;100496.25;;;2.58;72.95
39267;BME280;24967;51.154;13.812;2023-04-09T02:28:51;100491.00;;;2.58;73.66
39267;BME280;24967;51.154;13.812;2023-04-09T02:31:18;100480.00;;;2.50;72.99
39267;BME280;24967;51.154;13.812;2023-04-09T02:33:45;100490.13;;;2.40;73.30
39267;BME280;24967;51.154;13.812;2023-04-09T02:36:12;100479.31;;;2.46;73.32
39267;BME280;24967;51.154;13.812;2023-04-09T02:38:40;100474.06;;;2.46;72.92
39267;BME280;24967;51.154;13.812;2023-04-09T02:41:08;100478.91;;;2.54;73.18
39267;BME280;24967;51.154;13.812;2023-04-09T02:43:35;100480.53;;;2.57;73.41
39267;BME280;24967;51.154;13.812;2023-04-09T02:46:03;100487.53;;;2.58;73.22
39267;BME280;24967;51.154;13.812;2023-04-09T02:48:30;100488.28;;;2.60;73.10
39267;BME280;24967;51.154;13.812;2023-04-09T02:50:57;100490.91;;;2.60;73.54
39267;BME280;24967;51.154;13.812;2023-04-09T02:53:24;100481.78;;;2.49;72.69
39267;BME280;24967;51.154;13.812;2023-04-09T02:55:52;100490.22;;;2.56;72.91
39267;BME280;24967;51.154;13.812;2023-04-09T02:58:19;100479.38;;;2.45;72.67
39267;BME280;24967;51.154;13.812;2023-04-09T03:00:46;100493.69;;;2.39;73.53
39267;BME280;24967;51.154;13.812;2023-04-09T03:03:13;100477.31;;;2.34;73.52
39267;BME280;24967;51.154;13.812;2023-04-09T03:05:40;100475.06;;;2.44;73.49
39267;BME280;24967;51.154;13.812;2023-04-09T03:08:09;100479.38;;;2.45;73.63
39267;BME280;24967;51.154;13.812;2023-04-09T03:10:38;100484.91;;;2.58;73.50
39267;BME280;24967;51.154;13.812;2023-04-09T03:13:06;100470.97;;;2.56;73.42
39267;BME280;24967;51.154;13.812;2023-04-09T03:15:33;100488.28;;;2.60;73.54
39267;BME280;24967;51.154;13.812;2023-04-09T03:18:00;100473.97;;;2.48;74.01
39267;BME280;24967;51.154;13.812;2023-04-09T03:20:27;100450.47;;;2.64;73.70
39267;BME280;24967;51.154;13.812;2023-04-09T03:22:54;100461.66;;;2.85;72.88
39267;BME280;24967;51.154;13.812;2023-04-09T03:25:21;100483.56;;;2.84;73.19
39267;BME280;24967;51.154;13.812;2023-04-09T03:27:47;100483.59;;;2.66;73.26
39267;BME280;24967;51.154;13.812;2023-04-09T03:30:15;100474.47;;;2.56;73.76
39267;BME280;24967;51.154;13.812;2023-04-09T03:32:41;100480.34;;;2.61;74.15
39267;BME280;24967;51.154;13.812;2023-04-09T03:35:08;100487.66;;;2.55;74.46
39267;BME280;24967;51.154;13.812;2023-04-09T03:37:34;100482.78;;;2.47;75.19
39267;BME280;24967;51.154;13.812;2023-04-09T03:40:01;100485.34;;;2.48;74.42
39267;BME280;24967;51.154;13.812;2023-04-09T03:42:28;100475.28;;;2.57;75.28
39267;BME280;24967;51.154;13.812;2023-04-09T03:44:54;100478.72;;;2.59;74.99
39267;BME280;24967;51.154;13.812;2023-04-09T03:47:22;100482.19;;;2.59;74.87
39267;BME280;24967;51.154;13.812;2023-04-09T03:49:48;100478.56;;;2.62;75.49
39267;BME280;24967;51.154;13.812;2023-04-09T03:52:15;100480.03;;;2.67;75.07
39267;BME280;24967;51.154;13.812;2023-04-09T03:54:41;100474.38;;;2.75;75.66
39267;BME280;24967;51.154;13.812;2023-04-09T03:57:08;100480.66;;;2.72;75.74
39267;BME280;24967;51.154;13.812;2023-04-09T03:59:34;100483.19;;;2.74;74.79
39267;BME280;24967;51.154;13.812;2023-04-09T04:02:01;100481.41;;;2.74;75.37
39267;BME280;24967;51.154;13.812;2023-04-09T04:04:28;100488.28;;;2.77;75.17
39267;BME280;24967;51.154;13.812;2023-04-09T04:06:55;100479.31;;;2.81;75.80
39267;BME280;24967;51.154;13.812;2023-04-09T04:09:21;100483.44;;;2.69;75.48
39267;BME280;24967;51.154;13.812;2023-04-09T04:11:48;100485.13;;;2.70;76.15
39267;BME280;24967;51.154;13.812;2023-04-09T04:14:14;100486.66;;;2.74;76.22
39267;BME280;24967;51.154;13.812;2023-04-09T04:16:41;100496.47;;;2.71;75.75
39267;BME280;24967;51.154;13.812;2023-04-09T04:19:07;100484.13;;;2.73;76.34
39267;BME280;24967;51.154;13.812;2023-04-09T04:21:35;100488.28;;;2.77;76.76
39267;BME280;24967;51.154;13.812;2023-04-09T04:24:02;100500.16;;;2.84;75.67
39267;BME280;24967;51.154;13.812;2023-04-09T04:26:28;100493.00;;;2.88;76.66
39267;BME280;24967;51.154;13.812;2023-04-09T04:28:55;100492.75;;;2.92;76.15
39267;BME280;24967;51.154;13.812;2023-04-09T04:31:21;100486.28;;;3.00;75.80
39267;BME280;24967;51.154;13.812;2023-04-09T04:33:48;100492.91;;;3.07;76.04
39267;BME280;24967;51.154;13.812;2023-04-09T04:36:14;100493.69;;;3.09;76.14
39267;BME280;24967;51.154;13.812;2023-04-09T04:38:42;100491.09;;;3.07;76.16
39267;BME280;24967;51.154;13.812;2023-04-09T04:41:09;100490.78;;;3.13;75.73
39267;BME280;24967;51.154;13.812;2023-04-09T04:43:36;100496.31;;;3.09;76.40
39267;BME280;24967;51.154;13.812;2023-04-09T04:46:02;100505.56;;;3.16;76.89
39267;BME280;24967;51.154;13.812;2023-04-09T04:48:30;100506.81;;;3.09;76.04
39267;BME280;24967;51.154;13.812;2023-04-09T04:50:57;100504.19;;;3.09;76.66
39267;BME280;24967;51.154;13.812;2023-04-09T04:53:24;100507.06;;;3.20;76.86
39267;BME280;24967;51.154;13.812;2023-04-09T04:55:52;100513.97;;;3.22;76.74
39267;BME280;24967;51.154;13.812;2023-04-09T04:58:19;100512.78;;;3.28;76.78
39267;BME280;24967;51.154;13.812;2023-04-09T05:00:46;100503.94;;;3.47;76.74
39267;BME280;24967;51.154;13.812;2023-04-09T05:03:12;100509.53;;;3.40;76.85
39267;BME280;24967;51.154;13.812;2023-04-09T05:05:39;100501.97;;;3.50;76.85
39267;BME280;24967;51.154;13.812;2023-04-09T05:08:05;100510.59;;;3.85;76.02
39267;BME280;24967;51.154;13.812;2023-04-09T05:10:32;100505.06;;;3.58;75.94
39267;BME280;24967;51.154;13.812;2023-04-09T05:12:59;100513.00;;;3.41;76.87
39267;BME280;24967;51.154;13.812;2023-04-09T05:15:26;100514.72;;;3.42;77.46
39267;BME280;24967;51.154;13.812;2023-04-09T05:17:52;100507.66;;;3.42;77.84
39267;BME280;24967;51.154;13.812;2023-04-09T05:20:19;100507.91;;;3.54;77.98
39267;BME280;24967;51.154;13.812;2023-04-09T05:22:45;100511.16;;;3.59;78.13
39267;BME280;24967;51.154;13.812;2023-04-09T05:25:12;100509.38;;;3.59;79.35
39267;BME280;24967;51.154;13.812;2023-04-09T05:27:40;100507.91;;;3.54;80.18
39267;BME280;24967;51.154;13.812;2023-04-09T05:30:08;100510.66;;;3.68;80.27
39267;BME280;24967;51.154;13.812;2023-04-09T05:32:35;100515.44;;;3.77;80.15
39267;BME280;24967;51.154;13.812;2023-04-09T05:35:02;100515.94;;;3.84;80.26
39267;BME280;24967;51.154;13.812;2023-04-09T05:37:28;100519.34;;;3.86;80.56
39267;BME280;24967;51.154;13.812;2023-04-09T05:39:55;100522.47;;;3.93;80.63
39267;BME280;24967;51.154;13.812;2023-04-09T05:42:22;100523.34;;;4.09;80.63
39267;BME280;24967;51.154;13.812;2023-04-09T05:44:48;100528.50;;;4.42;83.32
39267;BME280;24967;51.154;13.812;2023-04-09T05:47:16;100529.00;;;4.79;85.79
39267;BME280;24967;51.154;13.812;2023-04-09T05:49:42;100527.66;;;5.16;84.84
39267;BME280;24967;51.154;13.812;2023-04-09T05:52:09;100525.16;;;5.58;84.56
39267;BME280;24967;51.154;13.812;2023-04-09T05:54:35;100513.81;;;6.13;83.19
39267;BME280;24967;51.154;13.812;2023-04-09T05:57:02;100517.19;;;6.69;79.72
39267;BME280;24967;51.154;13.812;2023-04-09T05:59:28;100515.56;;;7.19;76.84
39267;BME280;24967;51.154;13.812;2023-04-09T06:01:55;100507.94;;;7.66;72.97
39267;BME280;24967;51.154;13.812;2023-04-09T06:04:22;100504.72;;;8.10;71.05
39267;BME280;24967;51.154;13.812;2023-04-09T06:06:49;100507.31;;;8.36;69.07
39267;BME280;24967;51.154;13.812;2023-04-09T06:09:15;100502.13;;;7.97;67.18
39267;BME280;24967;51.154;13.812;2023-04-09T06:11:42;100504.78;;;7.97;66.85
39267;BME280;24967;51.154;13.812;2023-04-09T06:14:08;100504.03;;;7.95;67.20
39267;BME280;24967;51.154;13.812;2023-04-09T06:16:36;100497.28;;;7.91;67.18
39267;BME280;24967;51.154;13.812;2023-04-09T06:19:02;100500.69;;;7.80;67.03
39267;BME280;24967;51.154;13.812;2023-04-09T06:21:31;100502.97;;;7.48;68.52
39267;BME280;24967;51.154;13.812;2023-04-09T06:23:57;100503.19;;;7.20;69.17
39267;BME280;24967;51.154;13.812;2023-04-09T06:26:24;100505.06;;;6.92;70.92
39267;BME280;24967;51.154;13.812;2023-04-09T06:28:51;100508.13;;;6.86;71.55
39267;BME280;24967;51.154;13.812;2023-04-09T06:31:18;100515.00;;;6.22;76.02
39267;BME280;24967;51.154;13.812;2023-04-09T06:33:44;100520.25;;;6.76;73.93
39267;BME280;24967;51.154;13.812;2023-04-09T06:36:11;100516.88;;;6.74;73.63
39267;BME280;24967;51.154;13.812;2023-04-09T06:38:38;100511.84;;;6.56;74.82
39267;BME280;24967;51.154;13.812;2023-04-09T06:41:05;100513.22;;;6.49;75.67
39267;BME280;24967;51.154;13.812;2023-04-09T06:43:33;100517.19;;;6.69;75.67
39267;BME280;24967;51.154;13.812;2023-04-09T06:46:00;100514.56;;;6.69;76.99
39267;BME280;24967;51.154;13.812;2023-04-09T06:48:26;100515.34;;;6.97;76.41
39267;BME280;24967;51.154;13.812;2023-04-09T06:50:53;100520.13;;;6.64;77.46
39267;BME280;24967;51.154;13.812;2023-04-09T06:53:19;100520.28;;;6.88;77.96
39267;BME280;24967;51.154;13.812;2023-04-09T06:55:47;100524.38;;;6.80;78.38
39267;BME280;24967;51.154;13.812;2023-04-09T06:58:13;100521.66;;;6.94;78.97
39267;BME280;24967;51.154;13.812;2023-04-09T07:00:40;100520.50;;;6.98;78.41
39267;BME280;24967;51.154;13.812;2023-04-09T07:03:07;100530.25;;;6.98;77.86
39267;BME280;24967;51.154;13.812;2023-04-09T07:05:34;100532.69;;;7.01;77.91
39267;BME280;24967;51.154;13.812;2023-04-09T07:08:00;100532.63;;;6.75;80.17
39267;BME280;24967;51.154;13.812;2023-04-09T07:10:27;100539.44;;;6.92;79.21
39267;BME280;24967;51.154;13.812;2023-04-09T07:12:54;100534.50;;;7.26;78.89
39267;BME280;24967;51.154;13.812;2023-04-09T07:15:21;100544.13;;;7.40;77.28
39267;BME280;24967;51.154;13.812;2023-04-09T07:17:47;100535.25;;;7.28;76.53
39267;BME280;24967;51.154;13.812;2023-04-09T07:20:14;100534.81;;;7.34;79.78
39267;BME280;24967;51.154;13.812;2023-04-09T07:22:40;100543.28;;;7.39;79.80
39267;BME280;24967;51.154;13.812;2023-04-09T07:25:07;100534.81;;;7.47;81.76
39267;BME280;24967;51.154;13.812;2023-04-09T07:27:34;100533.84;;;7.73;81.41
39267;BME280;24967;51.154;13.812;2023-04-09T07:32:37;100508.50;;;7.95;79.16
39267;BME280;24967;51.154;13.812;2023-04-09T07:35:06;100516.75;;;8.27;77.45
39267;BME280;24967;51.154;13.812;2023-04-09T07:37:34;100502.94;;;8.35;75.75
39267;BME280;24967;51.154;13.812;2023-04-09T07:40:02;100526.03;;;8.69;73.70
39267;BME280;24967;51.154;13.812;2023-04-09T07:42:29;100518.88;;;8.59;72.87
39267;BME280;24967;51.154;13.812;2023-04-09T07:44:56;100519.59;;;8.61;69.17
39267;BME280;24967;51.154;13.812;2023-04-09T07:47:23;100519.69;;;8.83;68.00
39267;BME280;24967;51.154;13.812;2023-04-09T07:49:52;100535.31;;;8.99;67.95
39267;BME280;24967;51.154;13.812;2023-04-09T07:52:19;100515.25;;;8.84;70.19
39267;BME280;24967;51.154;13.812;2023-04-09T07:54:45;100510.72;;;8.73;71.09
39267;BME280;24967;51.154;13.812;2023-04-09T07:57:12;100512.66;;;9.06;71.05
39267;BME280;24967;51.154;13.812;2023-04-09T07:59:38;100516.75;;;9.10;71.20
39267;BME280;24967;51.154;13.812;2023-04-09T08:04:33;100524.00;;;9.20;66.82
39267;BME280;24967;51.154;13.812;2023-04-09T08:07:01;100514.50;;;9.39;67.17
39267;BME280;24967;51.154;13.812;2023-04-09T08:09:27;100522.00;;;9.46;67.65
39267;BME280;24967;51.154;13.812;2023-04-09T08:11:53;100529.81;;;9.36;68.21
39267;BME280;24967;51.154;13.812;2023-04-09T08:14:21;100532.25;;;9.61;68.08
39267;BME280;24967;51.154;13.812;2023-04-09T08:16:48;100526.81;;;9.97;64.69
39267;BME280;24967;51.154;13.812;2023-04-09T08:19:15;100530.59;;;9.72;66.51
39267;BME280;24967;51.154;13.812;2023-04-09T08:21:43;100533.59;;;9.90;67.07
39267;BME280;24967;51.154;13.812;2023-04-09T08:24:11;100532.38;;;10.05;66.46
39267;BME280;24967;51.154;13.812;2023-04-09T08:26:38;100541.50;;;10.35;65.78
39267;BME280;24967;51.154;13.812;2023-04-09T08:29:05;100539.75;;;9.90;62.99
39267;BME280;24967;51.154;13.812;2023-04-09T08:31:32;100544.94;;;9.80;63.68
39267;BME280;24967;51.154;13.812;2023-04-09T08:33:59;100538.75;;;9.91;63.93
39267;BME280;24967;51.154;13.812;2023-04-09T08:36:26;100551.56;;;10.08;66.07
39267;BME280;24967;51.154;13.812;2023-04-09T08:38:53;100540.44;;;10.26;65.70
39267;BME280;24967;51.154;13.812;2023-04-09T08:41:24;100513.97;;;10.36;60.91
39267;BME280;24967;51.154;13.812;2023-04-09T08:43:53;100525.34;;;10.26;60.16
39267;BME280;24967;51.154;13.812;2023-04-09T08:46:22;100524.56;;;10.47;61.26
39267;BME280;24967;51.154;13.812;2023-04-09T08:48:51;100524.66;;;10.57;61.70
39267;BME280;24967;51.154;13.812;2023-04-09T08:51:20;100528.44;;;10.75;61.06
39267;BME280;24967;51.154;13.812;2023-04-09T08:53:48;100520.66;;;10.83;60.98
39267;BME280;24967;51.154;13.812;2023-04-09T08:56:18;100529.97;;;10.57;61.06
39267;BME280;24967;51.154;13.812;2023-04-09T08:58:48;100526.59;;;10.87;61.01
39267;BME280;24967;51.154;13.812;2023-04-09T09:01:19;100524.78;;;11.08;60.49
39267;BME280;24967;51.154;13.812;2023-04-09T09:03:58;100535.94;;;11.23;61.44
39267;BME280;24967;51.154;13.812;2023-04-09T09:06:26;100532.91;;;11.37;60.29
39267;BME280;24967;51.154;13.812;2023-04-09T09:09:05;100524.94;;;11.37;59.12
39267;BME280;24967;51.154;13.812;2023-04-09T09:11:32;100529.84;;;11.63;60.94
39267;BME280;24967;51.154;13.812;2023-04-09T09:14:02;100530.69;;;11.63;58.07
39267;BME280;24967;51.154;13.812;2023-04-09T09:16:29;100533.81;;;11.68;58.73
39267;BME280;24967;51.154;13.812;2023-04-09T09:18:57;100536.28;;;11.91;59.21
39267;BME280;24967;51.154;13.812;2023-04-09T09:21:24;100534.56;;;12.21;60.12
39267;BME280;24967;51.154;13.812;2023-04-09T09:23:51;100536.13;;;12.33;58.89
39267;BME280;24967;51.154;13.812;2023-04-09T09:26:20;100533.44;;;12.13;57.51
39267;BME280;24967;51.154;13.812;2023-04-09T09:28:48;100528.78;;;12.15;58.77
39267;BME280;24967;51.154;13.812;2023-04-09T09:31:17;100528.97;;;12.43;59.48
39267;BME280;24967;51.154;13.812;2023-04-09T09:33:44;100521.97;;;12.52;58.86
39267;BME280;24967;51.154;13.812;2023-04-09T09:36:12;100522.28;;;12.78;59.09
39267;BME280;24967;51.154;13.812;2023-04-09T09:38:53;100526.91;;;12.56;57.72
39267;BME280;24967;51.154;13.812;2023-04-09T09:41:20;100519.59;;;12.58;58.50
39267;BME280;24967;51.154;13.812;2023-04-09T09:43:47;100525.50;;;12.81;56.91
39267;BME280;24967;51.154;13.812;2023-04-09T09:46:15;100519.19;;;12.53;56.17
39267;BME280;24967;51.154;13.812;2023-04-09T09:48:43;100524.91;;;12.58;56.39
39267;BME280;24967;51.154;13.812;2023-04-09T09:51:11;100522.13;;;12.41;56.47
39267;BME280;24967;51.154;13.812;2023-04-09T09:53:40;100521.69;;;12.35;57.99
39267;BME280;24967;51.154;13.812;2023-04-09T09:56:13;100520.56;;;12.48;57.84
39267;BME280;24967;51.154;13.812;2023-04-09T09:58:43;100516.63;;;12.61;58.48
39267;BME280;24967;51.154;13.812;2023-04-09T10:01:12;100518.19;;;12.93;57.53
39267;BME280;24967;51.154;13.812;2023-04-09T10:03:41;100515.78;;;13.00;56.05
39267;BME280;24967;51.154;13.812;2023-04-09T10:06:10;100515.19;;;13.16;57.77
39267;BME280;24967;51.154;13.812;2023-04-09T10:08:41;100518.44;;;13.29;55.60
39267;BME280;24967;51.154;13.812;2023-04-09T10:11:10;100515.03;;;13.37;55.24
39267;BME280;24967;51.154;13.812;2023-04-09T10:13:40;100508.63;;;13.00;55.19
39267;BME280;24967;51.154;13.812;2023-04-09T10:16:10;100516.75;;;13.18;55.79
39267;BME280;24967;51.154;13.812;2023-04-09T10:18:49;100515.78;;;13.29;56.28
39267;BME280;24967;51.154;13.812;2023-04-09T10:21:24;100518.75;;;12.97;57.04
39267;BME280;24967;51.154;13.812;2023-04-09T10:23:53;100510.72;;;13.26;56.38
39267;BME280;24967;51.154;13.812;2023-04-09T10:26:24;100509.72;;;13.17;55.84
39267;BME280;24967;51.154;13.812;2023-04-09T10:29:04;100503.34;;;13.47;55.47
39267;BME280;24967;51.154;13.812;2023-04-09T10:32:04;100501.38;;;13.49;55.84
39267;BME280;24967;51.154;13.812;2023-04-09T10:34:37;100496.97;;;13.58;55.37
39267;BME280;24967;51.154;13.812;2023-04-09T10:37:07;100498.09;;;13.65;53.65
39267;BME280;24967;51.154;13.812;2023-04-09T10:42:22;100492.00;;;13.36;56.54
39267;BME280;24967;51.154;13.812;2023-04-09T10:45:07;100488.31;;;13.46;56.29
39267;BME280;24967;51.154;13.812;2023-04-09T10:47:37;100487.16;;;13.49;55.54
39267;BME280;24967;51.154;13.812;2023-04-09T10:50:21;100483.53;;;13.50;56.29
39267;BME280;24967;51.154;13.812;2023-04-09T10:52:51;100478.44;;;13.57;55.57
39267;BME280;24967;51.154;13.812;2023-04-09T10:55:35;100475.06;;;13.55;55.52
39267;BME280;24967;51.154;13.812;2023-04-09T10:58:16;100468.22;;;13.70;53.69
39267;BME280;24967;51.154;13.812;2023-04-09T11:00:48;100478.78;;;13.71;54.19
39267;BME280;24967;51.154;13.812;2023-04-09T11:03:37;100476.25;;;13.70;53.65
39267;BME280;24967;51.154;13.812;2023-04-09T11:06:23;100476.16;;;13.62;54.10
39267;BME280;24967;51.154;13.812;2023-04-09T11:08:52;100450.81;;;13.38;53.97
39267;BME280;24967;51.154;13.812;2023-04-09T11:11:25;100450.06;;;13.46;53.98
39267;BME280;24967;51.154;13.812;2023-04-09T11:13:57;100469.25;;;13.32;54.49
39267;BME280;24967;51.154;13.812;2023-04-09T11:16:25;100475.22;;;13.43;54.84
39267;BME280;24967;51.154;13.812;2023-04-09T11:18:54;100463.66;;;13.62;54.13
39267;BME280;24967;51.154;13.812;2023-04-09T11:21:25;100471.13;;;13.86;54.67
39267;BME280;24967;51.154;13.812;2023-04-09T11:23:52;100464.81;;;14.05;52.79
39267;BME280;24967;51.154;13.812;2023-04-09T11:26:22;100459.72;;;13.84;52.77
39267;BME280;24967;51.154;13.812;2023-04-09T11:28:49;100468.00;;;13.91;52.88
39267;BME280;24967;51.154;13.812;2023-04-09T11:31:16;100472.56;;;14.26;53.29
39267;BME280;24967;51.154;13.812;2023-04-09T11:33:44;100464.97;;;14.39;52.75
39267;BME280;24967;51.154;13.812;2023-04-09T11:36:11;100471.84;;;14.06;53.03
39267;BME280;24967;51.154;13.812;2023-04-09T11:38:40;100465.53;;;14.25;53.28
39267;BME280;24967;51.154;13.812;2023-04-09T11:41:07;100462.91;;;14.15;53.20
39267;BME280;24967;51.154;13.812;2023-04-09T11:43:37;100453.97;;;14.42;53.60
39267;BME280;24967;51.154;13.812;2023-04-09T11:46:08;100453.31;;;14.23;53.32
39267;BME280;24967;51.154;13.812;2023-04-09T11:48:35;100463.09;;;14.50;52.63
39267;BME280;24967;51.154;13.812;2023-04-09T11:51:02;100452.72;;;14.64;51.26
39267;BME280;24967;51.154;13.812;2023-04-09T11:53:30;100460.19;;;14.61;53.85
39267;BME280;24967;51.154;13.812;2023-04-09T11:55:58;100463.44;;;14.37;51.59
39267;BME280;24967;51.154;13.812;2023-04-09T11:58:26;100458.66;;;14.23;52.19
39267;BME280;24967;51.154;13.812;2023-04-09T12:00:53;100452.28;;;14.06;53.55
39267;BME280;24967;51.154;13.812;2023-04-09T12:03:27;100450.47;;;13.79;53.95
39267;BME280;24967;51.154;13.812;2023-04-09T12:05:54;100454.84;;;13.97;54.50
39267;BME280;24967;51.154;13.812;2023-04-09T12:08:23;100454.25;;;13.86;53.19
39267;BME280;24967;51.154;13.812;2023-04-09T12:10:50;100453.25;;;13.87;54.88
39267;BME280;24967;51.154;13.812;2023-04-09T12:13:18;100452.88;;;14.00;54.73
39267;BME280;24967;51.154;13.812;2023-04-09T12:15:47;100453.50;;;14.11;55.16
39267;BME280;24967;51.154;13.812;2023-04-09T12:18:14;100455.72;;;13.98;54.68
39267;BME280;24967;51.154;13.812;2023-04-09T12:20:42;100454.69;;;13.81;55.05
39267;BME280;24967;51.154;13.812;2023-04-09T12:23:10;100452.41;;;13.86;55.00
39267;BME280;24967;51.154;13.812;2023-04-09T12:25:37;100450.50;;;13.96;54.95
39267;BME280;24967;51.154;13.812;2023-04-09T12:28:06;100457.78;;;14.04;54.54
39267;BME280;24967;51.154;13.812;2023-04-09T12:30:34;100452.06;;;14.17;53.83
39267;BME280;24967;51.154;13.812;2023-04-09T12:33:01;100454.66;;;14.27;52.72
39267;BME280;24967;51.154;13.812;2023-04-09T12:35:28;100456.91;;;14.31;54.51
39267;BME280;24967;51.154;13.812;2023-04-09T12:37:55;100452.47;;;14.58;53.41
39267;BME280;24967;51.154;13.812;2023-04-09T12:40:21;100445.88;;;14.70;51.92
39267;BME280;24967;51.154;13.812;2023-04-09T12:42:48;100445.09;;;14.96;53.11
39267;BME280;24967;51.154;13.812;2023-04-09T12:45:16;100444.75;;;15.25;51.41
39267;BME280;24967;51.154;13.812;2023-04-09T12:47:48;100441.59;;;15.29;50.91
39267;BME280;24967;51.154;13.812;2023-04-09T12:50:15;100447.59;;;15.49;49.60
39267;BME280;24967;51.154;13.812;2023-04-09T12:52:42;100441.28;;;15.32;49.17
39267;BME280;24967;51.154;13.812;2023-04-09T12:55:12;100441.97;;;15.34;49.86
39267;BME280;24967;51.154;13.812;2023-04-09T12:57:43;100430.94;;;15.38;49.79
39267;BME280;24967;51.154;13.812;2023-04-09T13:00:12;100436.63;;;15.34;49.94